sensor_id;sensor_type;location;lat;lon;timestamp;P1;durP1;ratioP1;P2;durP2;ratioP2
37365;SDS011;23239;51.504;7.456;2022-12-05T00:01:15;30.8;;;23.6;;
37365;SDS011;23239;51.504;7.456;2022-12-05T00:06:06;29.9;;;21.8;;
37365;SDS011;23239;51.504;7.456;2022-12-05T00:11:09;31;;;22.7;;
37365;SDS011;23239;51.504;7.456;2022-12-05T00:16:06;29.1;;;21;;
37365;SDS011;23239;51.504;7.456;2022-12-05T00:21:06;31.9;;;25.1;;
37365;SDS011;23239;51.504;7.456;2022-12-05T00:26:06;32.8;;;25.5;;
37365;SDS011;23239;51.504;7.456;2022-12-05T00:31:07;31;;;25.5;;
37365;SDS011;23239;51.504;7.456;2022-12-05T00:36:07;30;;;24.4;;
37365;SDS011;23239;51.504;7.456;2022-12-05T00:41:08;32.7;;;25.2;;
37365;SDS011;23239;51.504;7.456;2022-12-05T00:46:06;33.2;;;22.9;;
37365;SDS011;23239;51.504;7.456;2022-12-05T00:51:06;32.3;;;24;;
37365;SDS011;23239;51.504;7.456;2022-12-05T00:56:07;29.8;;;22.9;;
37365;SDS011;23239;51.504;7.456;2022-12-05T01:01:07;32;;;24.1;;
37365;SDS011;23239;51.504;7.456;2022-12-05T01:06:06;32.6;;;24.9;;
37365;SDS011;23239;51.504;7.456;2022-12-05T01:11:06;32.5;;;24.3;;
37365;SDS011;23239;51.504;7.456;2022-12-05T01:16:08;32.3;;;23.8;;
37365;SDS011;23239;51.504;7.456;2022-12-05T01:21:06;30.2;;;22.7;;
37365;SDS011;23239;51.504;7.456;2022-12-05T01:26:07;31.7;;;23.6;;
37365;SDS011;23239;51.504;7.456;2022-12-05T01:31:06;34.7;;;24.5;;
37365;SDS011;23239;51.504;7.456;2022-12-05T01:36:08;33.6;;;24.4;;
37365;SDS011;23239;51.504;7.456;2022-12-05T01:41:06;33.1;;;24.7;;
37365;SDS011;23239;51.504;7.456;2022-12-05T01:46:06;32.8;;;24.2;;
37365;SDS011;23239;51.504;7.456;2022-12-05T01:51:06;32.2;;;23.4;;
37365;SDS011;23239;51.504;7.456;2022-12-05T01:56:06;32.1;;;24.6;;
37365;SDS011;23239;51.504;7.456;2022-12-05T02:01:06;30.8;;;23.6;;
37365;SDS011;23239;51.504;7.456;2022-12-05T02:06:06;33.8;;;25.5;;
37365;SDS011;23239;51.504;7.456;2022-12-05T02:11:06;31.8;;;24.7;;
37365;SDS011;23239;51.504;7.456;2022-12-05T02:16:07;31.2;;;22.6;;
37365;SDS011;23239;51.504;7.456;2022-12-05T02:21:11;31.1;;;23;;
37365;SDS011;23239;51.504;7.456;2022-12-05T02:26:42;30.2;;;21.7;;
37365;SDS011;23239;51.504;7.456;2022-12-05T02:31:06;33.4;;;24.1;;
37365;SDS011;23239;51.504;7.456;2022-12-05T02:36:06;32;;;22.6;;
37365;SDS011;23239;51.504;7.456;2022-12-05T02:41:09;30.1;;;23.1;;
37365;SDS011;23239;51.504;7.456;2022-12-05T02:46:07;34.2;;;23.4;;
37365;SDS011;23239;51.504;7.456;2022-12-05T02:51:06;29.6;;;20.8;;
37365;SDS011;23239;51.504;7.456;2022-12-05T02:56:06;31.5;;;23.1;;
37365;SDS011;23239;51.504;7.456;2022-12-05T03:01:06;32;;;23.3;;
37365;SDS011;23239;51.504;7.456;2022-12-05T03:06:07;31.7;;;22.7;;
37365;SDS011;23239;51.504;7.456;2022-12-05T03:11:06;32.3;;;25.1;;
37365;SDS011;23239;51.504;7.456;2022-12-05T03:16:06;34.2;;;25.5;;
37365;SDS011;23239;51.504;7.456;2022-12-05T03:21:07;33;;;24.4;;
37365;SDS011;23239;51.504;7.456;2022-12-05T03:26:08;32.9;;;24.3;;
37365;SDS011;23239;51.504;7.456;2022-12-05T03:31:07;33.4;;;25;;
37365;SDS011;23239;51.504;7.456;2022-12-05T03:36:08;32.8;;;23.9;;
37365;SDS011;23239;51.504;7.456;2022-12-05T03:41:07;35;;;23.8;;
37365;SDS011;23239;51.504;7.456;2022-12-05T03:46:07;33.1;;;23.5;;
37365;SDS011;23239;51.504;7.456;2022-12-05T03:51:06;31.1;;;23;;
37365;SDS011;23239;51.504;7.456;2022-12-05T03:56:06;34.3;;;24.7;;
37365;SDS011;23239;51.504;7.456;2022-12-05T04:01:06;31.4;;;22.9;;
37365;SDS011;23239;51.504;7.456;2022-12-05T04:06:08;33.5;;;24;;
37365;SDS011;23239;51.504;7.456;2022-12-05T04:11:08;31.6;;;23.7;;
37365;SDS011;23239;51.504;7.456;2022-12-05T04:16:07;31.6;;;23.8;;
37365;SDS011;23239;51.504;7.456;2022-12-05T04:21:06;32.8;;;23.3;;
37365;SDS011;23239;51.504;7.456;2022-12-05T04:26:07;31;;;23;;
37365;SDS011;23239;51.504;7.456;2022-12-05T04:31:06;29.8;;;22.1;;
37365;SDS011;23239;51.504;7.456;2022-12-05T04:36:06;29.1;;;21.3;;
37365;SDS011;23239;51.504;7.456;2022-12-05T04:41:06;29.7;;;22.6;;
37365;SDS011;23239;51.504;7.456;2022-12-05T04:46:07;29.9;;;22.6;;
37365;SDS011;23239;51.504;7.456;2022-12-05T04:51:06;29.9;;;23.1;;
37365;SDS011;23239;51.504;7.456;2022-12-05T04:56:06;30.2;;;22.2;;
37365;SDS011;23239;51.504;7.456;2022-12-05T05:01:07;30.7;;;22.6;;
37365;SDS011;23239;51.504;7.456;2022-12-05T05:06:06;27.7;;;21.7;;
37365;SDS011;23239;51.504;7.456;2022-12-05T05:11:08;27.7;;;21.4;;
37365;SDS011;23239;51.504;7.456;2022-12-05T05:16:06;29.8;;;22;;
37365;SDS011;23239;51.504;7.456;2022-12-05T05:21:06;26.9;;;21;;
37365;SDS011;23239;51.504;7.456;2022-12-05T05:26:06;30;;;22.5;;
37365;SDS011;23239;51.504;7.456;2022-12-05T05:31:06;29.3;;;22.2;;
37365;SDS011;23239;51.504;7.456;2022-12-05T05:36:07;27.6;;;21.3;;
37365;SDS011;23239;51.504;7.456;2022-12-05T05:41:10;29;;;22.2;;
37365;SDS011;23239;51.504;7.456;2022-12-05T05:46:07;28.4;;;21;;
37365;SDS011;23239;51.504;7.456;2022-12-05T05:51:06;25.3;;;20.1;;
37365;SDS011;23239;51.504;7.456;2022-12-05T05:56:07;28.1;;;21.1;;
37365;SDS011;23239;51.504;7.456;2022-12-05T06:01:07;25.8;;;20.9;;
37365;SDS011;23239;51.504;7.456;2022-12-05T06:06:07;26.6;;;20.7;;
37365;SDS011;23239;51.504;7.456;2022-12-05T06:11:06;27;;;21;;
37365;SDS011;23239;51.504;7.456;2022-12-05T06:16:07;30.9;;;22.5;;
37365;SDS011;23239;51.504;7.456;2022-12-05T06:21:06;26.3;;;21.4;;
37365;SDS011;23239;51.504;7.456;2022-12-05T06:26:09;25.6;;;21;;
37365;SDS011;23239;51.504;7.456;2022-12-05T06:31:06;22.3;;;18;;
37365;SDS011;23239;51.504;7.456;2022-12-05T06:36:06;24.8;;;18.2;;
37365;SDS011;23239;51.504;7.456;2022-12-05T06:41:06;22.5;;;17.7;;
37365;SDS011;23239;51.504;7.456;2022-12-05T06:46:06;20.6;;;17.3;;
37365;SDS011;23239;51.504;7.456;2022-12-05T06:51:07;24.6;;;17.6;;
37365;SDS011;23239;51.504;7.456;2022-12-05T06:56:08;22.7;;;17.9;;
37365;SDS011;23239;51.504;7.456;2022-12-05T07:01:08;20.3;;;16;;
37365;SDS011;23239;51.504;7.456;2022-12-05T07:06:06;21.4;;;17.8;;
37365;SDS011;23239;51.504;7.456;2022-12-05T07:11:06;19.8;;;16.8;;
37365;SDS011;23239;51.504;7.456;2022-12-05T07:16:06;20.6;;;17.1;;
37365;SDS011;23239;51.504;7.456;2022-12-05T07:21:06;23;;;19.9;;
37365;SDS011;23239;51.504;7.456;2022-12-05T07:26:06;20.9;;;17.8;;
37365;SDS011;23239;51.504;7.456;2022-12-05T07:31:07;19.8;;;16.8;;
37365;SDS011;23239;51.504;7.456;2022-12-05T07:36:07;17.8;;;15.9;;
37365;SDS011;23239;51.504;7.456;2022-12-05T07:41:06;19.1;;;16.8;;
37365;SDS011;23239;51.504;7.456;2022-12-05T07:46:06;19.8;;;16.1;;
37365;SDS011;23239;51.504;7.456;2022-12-05T07:51:06;18.9;;;16.5;;
37365;SDS011;23239;51.504;7.456;2022-12-05T07:56:06;16.5;;;14.8;;
37365;SDS011;23239;51.504;7.456;2022-12-05T08:01:06;16;;;14.4;;
37365;SDS011;23239;51.504;7.456;2022-12-05T08:06:07;13.9;;;12.5;;
37365;SDS011;23239;51.504;7.456;2022-12-05T08:11:06;14.3;;;12.9;;
37365;SDS011;23239;51.504;7.456;2022-12-05T08:16:08;13.8;;;12.3;;
37365;SDS011;23239;51.504;7.456;2022-12-05T08:21:06;16.8;;;14.1;;
37365;SDS011;23239;51.504;7.456;2022-12-05T08:26:06;13.5;;;12.1;;
37365;SDS011;23239;51.504;7.456;2022-12-05T08:31:06;13.8;;;12.4;;
37365;SDS011;23239;51.504;7.456;2022-12-05T08:36:07;14.3;;;12.8;;
37365;SDS011;23239;51.504;7.456;2022-12-05T08:41:06;15.6;;;13.9;;
37365;SDS011;23239;51.504;7.456;2022-12-05T08:46:06;15.2;;;13.6;;
37365;SDS011;23239;51.504;7.456;2022-12-05T08:51:06;15.6;;;14;;
37365;SDS011;23239;51.504;7.456;2022-12-05T08:56:07;15;;;13.1;;
37365;SDS011;23239;51.504;7.456;2022-12-05T09:01:06;14.6;;;13.1;;
37365;SDS011;23239;51.504;7.456;2022-12-05T09:06:07;16;;;13.7;;
37365;SDS011;23239;51.504;7.456;2022-12-05T09:11:06;13.7;;;12.3;;
37365;SDS011;23239;51.504;7.456;2022-12-05T09:16:06;13.8;;;12.4;;
37365;SDS011;23239;51.504;7.456;2022-12-05T09:21:06;13.8;;;12.3;;
37365;SDS011;23239;51.504;7.456;2022-12-05T09:26:07;14.9;;;13.3;;
37365;SDS011;23239;51.504;7.456;2022-12-05T09:31:06;14.6;;;13.1;;
37365;SDS011;23239;51.504;7.456;2022-12-05T09:36:07;14.2;;;12.8;;
37365;SDS011;23239;51.504;7.456;2022-12-05T09:41:08;14.4;;;13;;
37365;SDS011;23239;51.504;7.456;2022-12-05T09:46:08;14.7;;;13.1;;
37365;SDS011;23239;51.504;7.456;2022-12-05T09:51:06;14.4;;;12.9;;
37365;SDS011;23239;51.504;7.456;2022-12-05T09:56:11;13.9;;;12.4;;
37365;SDS011;23239;51.504;7.456;2022-12-05T10:01:10;16.8;;;15;;
37365;SDS011;23239;51.504;7.456;2022-12-05T10:06:09;14.6;;;13;;
37365;SDS011;23239;51.504;7.456;2022-12-05T10:11:07;13.1;;;11.9;;
37365;SDS011;23239;51.504;7.456;2022-12-05T10:16:08;14;;;12.5;;
37365;SDS011;23239;51.504;7.456;2022-12-05T10:21:09;14.1;;;12.6;;
37365;SDS011;23239;51.504;7.456;2022-12-05T10:26:06;15.1;;;13.4;;
37365;SDS011;23239;51.504;7.456;2022-12-05T10:31:06;14.6;;;12.9;;
37365;SDS011;23239;51.504;7.456;2022-12-05T10:36:09;14.6;;;13.1;;
37365;SDS011;23239;51.504;7.456;2022-12-05T10:41:07;15.9;;;14.3;;
37365;SDS011;23239;51.504;7.456;2022-12-05T10:46:06;18.3;;;16.1;;
37365;SDS011;23239;51.504;7.456;2022-12-05T10:51:08;20.1;;;18.1;;
37365;SDS011;23239;51.504;7.456;2022-12-05T10:56:34;20.1;;;17.3;;
37365;SDS011;23239;51.504;7.456;2022-12-05T11:01:07;20.9;;;18.6;;
37365;SDS011;23239;51.504;7.456;2022-12-05T11:06:13;22.3;;;18.8;;
37365;SDS011;23239;51.504;7.456;2022-12-05T11:11:06;21.9;;;19.5;;
37365;SDS011;23239;51.504;7.456;2022-12-05T11:16:08;22.9;;;20.2;;
37365;SDS011;23239;51.504;7.456;2022-12-05T11:21:08;23.2;;;20.5;;
37365;SDS011;23239;51.504;7.456;2022-12-05T11:26:13;25.1;;;22.3;;
37365;SDS011;23239;51.504;7.456;2022-12-05T11:31:17;30.4;;;23.7;;
37365;SDS011;23239;51.504;7.456;2022-12-05T11:36:10;30.2;;;24;;
37365;SDS011;23239;51.504;7.456;2022-12-05T11:41:24;27.2;;;22.9;;
37365;SDS011;23239;51.504;7.456;2022-12-05T11:46:08;28.6;;;24;;
37365;SDS011;23239;51.504;7.456;2022-12-05T11:51:10;27.3;;;22.8;;
37365;SDS011;23239;51.504;7.456;2022-12-05T11:56:08;27.3;;;23.4;;
37365;SDS011;23239;51.504;7.456;2022-12-05T12:01:08;26;;;22;;
37365;SDS011;23239;51.504;7.456;2022-12-05T12:06:11;24.4;;;21.6;;
37365;SDS011;23239;51.504;7.456;2022-12-05T12:11:07;24.5;;;21.8;;
37365;SDS011;23239;51.504;7.456;2022-12-05T12:16:08;23.6;;;20.9;;
37365;SDS011;23239;51.504;7.456;2022-12-05T12:21:07;25.2;;;21.6;;
37365;SDS011;23239;51.504;7.456;2022-12-05T12:26:07;24.8;;;20.6;;
37365;SDS011;23239;51.504;7.456;2022-12-05T12:31:12;20.7;;;18.4;;
37365;SDS011;23239;51.504;7.456;2022-12-05T12:36:09;23.6;;;21.1;;
37365;SDS011;23239;51.504;7.456;2022-12-05T12:41:07;20;;;18;;
37365;SDS011;23239;51.504;7.456;2022-12-05T12:46:10;21.8;;;19.5;;
37365;SDS011;23239;51.504;7.456;2022-12-05T12:51:07;18.3;;;16.4;;
37365;SDS011;23239;51.504;7.456;2022-12-05T12:56:10;18.1;;;16.3;;
37365;SDS011;23239;51.504;7.456;2022-12-05T13:01:08;15.8;;;14.2;;
37365;SDS011;23239;51.504;7.456;2022-12-05T13:06:07;15.6;;;14.1;;
37365;SDS011;23239;51.504;7.456;2022-12-05T13:11:07;19.7;;;17.7;;
37365;SDS011;23239;51.504;7.456;2022-12-05T13:16:06;20;;;18;;
37365;SDS011;23239;51.504;7.456;2022-12-05T13:21:07;16.5;;;14.8;;
37365;SDS011;23239;51.504;7.456;2022-12-05T13:26:06;19;;;17.1;;
37365;SDS011;23239;51.504;7.456;2022-12-05T13:31:06;18.1;;;16.3;;
37365;SDS011;23239;51.504;7.456;2022-12-05T13:36:07;19;;;16.9;;
37365;SDS011;23239;51.504;7.456;2022-12-05T13:41:06;19.6;;;17.6;;
37365;SDS011;23239;51.504;7.456;2022-12-05T13:46:06;18.6;;;16.8;;
37365;SDS011;23239;51.504;7.456;2022-12-05T13:51:07;19.5;;;17.5;;
37365;SDS011;23239;51.504;7.456;2022-12-05T13:56:21;18.5;;;16.7;;
37365;SDS011;23239;51.504;7.456;2022-12-05T14:02:44;17.8;;;15.9;;
37365;SDS011;23239;51.504;7.456;2022-12-05T14:06:06;19.4;;;17.4;;
37365;SDS011;23239;51.504;7.456;2022-12-05T14:11:07;17.6;;;15.8;;
37365;SDS011;23239;51.504;7.456;2022-12-05T14:16:41;18.5;;;16.5;;
37365;SDS011;23239;51.504;7.456;2022-12-05T14:21:06;19.3;;;17.3;;
37365;SDS011;23239;51.504;7.456;2022-12-05T14:26:10;19.1;;;17.1;;
37365;SDS011;23239;51.504;7.456;2022-12-05T14:31:12;18.4;;;16.5;;
37365;SDS011;23239;51.504;7.456;2022-12-05T14:36:06;18.7;;;16.8;;
37365;SDS011;23239;51.504;7.456;2022-12-05T14:41:10;20.4;;;18.2;;
37365;SDS011;23239;51.504;7.456;2022-12-05T14:46:07;23.9;;;18.2;;
37365;SDS011;23239;51.504;7.456;2022-12-05T14:51:42;21.2;;;18.5;;
37365;SDS011;23239;51.504;7.456;2022-12-05T14:56:10;20.3;;;18.3;;
37365;SDS011;23239;51.504;7.456;2022-12-05T15:01:07;18.8;;;16.2;;
37365;SDS011;23239;51.504;7.456;2022-12-05T15:06:10;23.9;;;16.3;;
37365;SDS011;23239;51.504;7.456;2022-12-05T15:11:06;39.4;;;17;;
37365;SDS011;23239;51.504;7.456;2022-12-05T15:16:06;36.9;;;17.2;;
37365;SDS011;23239;51.504;7.456;2022-12-05T15:21:06;23.6;;;17.2;;
37365;SDS011;23239;51.504;7.456;2022-12-05T15:26:11;25.5;;;15.6;;
37365;SDS011;23239;51.504;7.456;2022-12-05T15:31:07;18.6;;;16.1;;
37365;SDS011;23239;51.504;7.456;2022-12-05T15:36:06;19.3;;;16.6;;
37365;SDS011;23239;51.504;7.456;2022-12-05T15:41:08;22.1;;;16.6;;
37365;SDS011;23239;51.504;7.456;2022-12-05T15:46:22;18.8;;;16.8;;
37365;SDS011;23239;51.504;7.456;2022-12-05T15:51:06;18.7;;;15.8;;
37365;SDS011;23239;51.504;7.456;2022-12-05T15:56:07;18.5;;;16;;
37365;SDS011;23239;51.504;7.456;2022-12-05T16:01:08;18.9;;;16.3;;
37365;SDS011;23239;51.504;7.456;2022-12-05T16:06:08;17.5;;;15.2;;
37365;SDS011;23239;51.504;7.456;2022-12-05T16:11:07;15.7;;;14;;
37365;SDS011;23239;51.504;7.456;2022-12-05T16:16:06;18.7;;;15;;
37365;SDS011;23239;51.504;7.456;2022-12-05T16:21:26;22.9;;;17.7;;
37365;SDS011;23239;51.504;7.456;2022-12-05T16:26:13;16.2;;;13.5;;
37365;SDS011;23239;51.504;7.456;2022-12-05T16:31:06;15.7;;;12;;
37365;SDS011;23239;51.504;7.456;2022-12-05T16:36:06;13.1;;;11.7;;
37365;SDS011;23239;51.504;7.456;2022-12-05T16:41:06;14.5;;;13;;
37365;SDS011;23239;51.504;7.456;2022-12-05T16:46:25;16.9;;;13.5;;
37365;SDS011;23239;51.504;7.456;2022-12-05T16:51:15;14.9;;;13.3;;
37365;SDS011;23239;51.504;7.456;2022-12-05T16:56:06;16.1;;;13.9;;
37365;SDS011;23239;51.504;7.456;2022-12-05T17:01:06;17;;;14.6;;
37365;SDS011;23239;51.504;7.456;2022-12-05T17:06:06;14.5;;;12.9;;
37365;SDS011;23239;51.504;7.456;2022-12-05T17:11:06;13.8;;;12;;
37365;SDS011;23239;51.504;7.456;2022-12-05T17:16:06;14.7;;;13.1;;
37365;SDS011;23239;51.504;7.456;2022-12-05T17:21:09;14;;;12.5;;
37365;SDS011;23239;51.504;7.456;2022-12-05T17:26:07;15.7;;;11.9;;
37365;SDS011;23239;51.504;7.456;2022-12-05T17:31:08;13.4;;;12;;
37365;SDS011;23239;51.504;7.456;2022-12-05T17:36:06;15.1;;;13.7;;
37365;SDS011;23239;51.504;7.456;2022-12-05T17:41:06;16.2;;;14.6;;
37365;SDS011;23239;51.504;7.456;2022-12-05T17:46:06;16.8;;;15.1;;
37365;SDS011;23239;51.504;7.456;2022-12-05T17:51:06;17;;;13.9;;
37365;SDS011;23239;51.504;7.456;2022-12-05T17:56:06;13.1;;;11.8;;
37365;SDS011;23239;51.504;7.456;2022-12-05T18:01:08;14.2;;;12.7;;
37365;SDS011;23239;51.504;7.456;2022-12-05T18:06:06;12.8;;;11.4;;
37365;SDS011;23239;51.504;7.456;2022-12-05T18:11:06;14.9;;;12.5;;
37365;SDS011;23239;51.504;7.456;2022-12-05T18:16:06;12.3;;;11;;
37365;SDS011;23239;51.504;7.456;2022-12-05T18:21:06;18.5;;;16.6;;
37365;SDS011;23239;51.504;7.456;2022-12-05T18:26:06;11;;;9.9;;
37365;SDS011;23239;51.504;7.456;2022-12-05T18:31:06;11.4;;;10.3;;
37365;SDS011;23239;51.504;7.456;2022-12-05T18:36:06;11.3;;;9.4;;
37365;SDS011;23239;51.504;7.456;2022-12-05T18:41:06;9.4;;;8.4;;
37365;SDS011;23239;51.504;7.456;2022-12-05T18:46:06;11.1;;;9.9;;
37365;SDS011;23239;51.504;7.456;2022-12-05T18:51:07;11;;;9.9;;
37365;SDS011;23239;51.504;7.456;2022-12-05T18:56:07;11.5;;;9.6;;
37365;SDS011;23239;51.504;7.456;2022-12-05T19:01:01;0;;;0;;
37365;SDS011;23239;51.504;7.456;2022-12-05T19:01:04;7.1;;;5.8;;
37365;SDS011;23239;51.504;7.456;2022-12-05T19:02:53;0;;;0;;
37365;SDS011;23239;51.504;7.456;2022-12-05T19:02:57;6.7;;;6.1;;
37365;SDS011;23239;51.504;7.456;2022-12-05T19:07:57;10.9;;;9.6;;
37365;SDS011;23239;51.504;7.456;2022-12-05T19:12:57;11;;;9.7;;
37365;SDS011;23239;51.504;7.456;2022-12-05T19:17:57;11.3;;;10.2;;
37365;SDS011;23239;51.504;7.456;2022-12-05T19:22:57;12.4;;;11.1;;
37365;SDS011;23239;51.504;7.456;2022-12-05T19:27:57;11.6;;;10.4;;
37365;SDS011;23239;51.504;7.456;2022-12-05T19:32:57;10.5;;;9.5;;
37365;SDS011;23239;51.504;7.456;2022-12-05T19:37:57;11.6;;;10.4;;
37365;SDS011;23239;51.504;7.456;2022-12-05T19:42:57;12.4;;;10.1;;
37365;SDS011;23239;51.504;7.456;2022-12-05T19:47:57;11;;;9.9;;
37365;SDS011;23239;51.504;7.456;2022-12-05T19:52:57;11.4;;;9.7;;
37365;SDS011;23239;51.504;7.456;2022-12-05T19:57:57;10.7;;;9.6;;
37365;SDS011;23239;51.504;7.456;2022-12-05T20:02:57;12.8;;;11;;
37365;SDS011;23239;51.504;7.456;2022-12-05T20:07:57;12.5;;;11.2;;
37365;SDS011;23239;51.504;7.456;2022-12-05T20:12:57;13.8;;;12.3;;
37365;SDS011;23239;51.504;7.456;2022-12-05T20:17:57;13;;;11.7;;
37365;SDS011;23239;51.504;7.456;2022-12-05T20:22:57;13.1;;;11.7;;
37365;SDS011;23239;51.504;7.456;2022-12-05T20:27:57;10.7;;;9.7;;
37365;SDS011;23239;51.504;7.456;2022-12-05T20:32:57;10.8;;;9.7;;
37365;SDS011;23239;51.504;7.456;2022-12-05T20:37:57;11.1;;;10.1;;
37365;SDS011;23239;51.504;7.456;2022-12-05T20:42:57;11.1;;;10;;
37365;SDS011;23239;51.504;7.456;2022-12-05T20:47:57;10.7;;;9.6;;
37365;SDS011;23239;51.504;7.456;2022-12-05T20:52:57;11.6;;;10.5;;
37365;SDS011;23239;51.504;7.456;2022-12-05T20:57:57;13.5;;;11.7;;
37365;SDS011;23239;51.504;7.456;2022-12-05T21:02:57;13.3;;;11.9;;
37365;SDS011;23239;51.504;7.456;2022-12-05T21:07:57;14.3;;;12.8;;
37365;SDS011;23239;51.504;7.456;2022-12-05T21:12:57;16.4;;;14;;
37365;SDS011;23239;51.504;7.456;2022-12-05T21:17:57;15.5;;;13.8;;
37365;SDS011;23239;51.504;7.456;2022-12-05T21:22:57;15;;;13.4;;
37365;SDS011;23239;51.504;7.456;2022-12-05T21:27:57;15.2;;;12.5;;
37365;SDS011;23239;51.504;7.456;2022-12-05T21:32:57;13.7;;;12.2;;
37365;SDS011;23239;51.504;7.456;2022-12-05T21:37:57;13.6;;;12.2;;
37365;SDS011;23239;51.504;7.456;2022-12-05T21:42:57;12.2;;;10.6;;
37365;SDS011;23239;51.504;7.456;2022-12-05T21:47:57;12;;;10.8;;
37365;SDS011;23239;51.504;7.456;2022-12-05T21:52:57;13.6;;;10.6;;
37365;SDS011;23239;51.504;7.456;2022-12-05T21:57:57;10.5;;;9.3;;
37365;SDS011;23239;51.504;7.456;2022-12-05T22:02:57;10.7;;;9.3;;
37365;SDS011;23239;51.504;7.456;2022-12-05T22:07:57;11.6;;;10.4;;
37365;SDS011;23239;51.504;7.456;2022-12-05T22:12:57;10.8;;;9.7;;
37365;SDS011;23239;51.504;7.456;2022-12-05T22:17:57;11.1;;;9.9;;
37365;SDS011;23239;51.504;7.456;2022-12-05T22:22:57;10.2;;;9.2;;
37365;SDS011;23239;51.504;7.456;2022-12-05T22:27:57;11.1;;;10;;
37365;SDS011;23239;51.504;7.456;2022-12-05T22:32:57;11;;;9.7;;
37365;SDS011;23239;51.504;7.456;2022-12-05T22:37:57;11.4;;;10.2;;
37365;SDS011;23239;51.504;7.456;2022-12-05T22:42:57;12.7;;;9.8;;
37365;SDS011;23239;51.504;7.456;2022-12-05T22:47:57;11.9;;;10.1;;
37365;SDS011;23239;51.504;7.456;2022-12-05T22:52:57;11.4;;;10.2;;
37365;SDS011;23239;51.504;7.456;2022-12-05T22:57:57;13.3;;;11.9;;
37365;SDS011;23239;51.504;7.456;2022-12-05T23:02:57;12.3;;;11;;
37365;SDS011;23239;51.504;7.456;2022-12-05T23:07:57;12.1;;;10.5;;
37365;SDS011;23239;51.504;7.456;2022-12-05T23:12:57;12.8;;;11.5;;
37365;SDS011;23239;51.504;7.456;2022-12-05T23:17:57;11.4;;;10.2;;
37365;SDS011;23239;51.504;7.456;2022-12-05T23:22:57;11.6;;;10.4;;
37365;SDS011;23239;51.504;7.456;2022-12-05T23:27:57;10.3;;;9.2;;
37365;SDS011;23239;51.504;7.456;2022-12-05T23:32:57;10.6;;;8.9;;
37365;SDS011;23239;51.504;7.456;2022-12-05T23:37:57;10.5;;;9.3;;
37365;SDS011;23239;51.504;7.456;2022-12-05T23:42:57;11;;;9.9;;
37365;SDS011;23239;51.504;7.456;2022-12-05T23:47:57;10.3;;;9.2;;
37365;SDS011;23239;51.504;7.456;2022-12-05T23:52:57;12.2;;;10.7;;
37365;SDS011;23239;51.504;7.456;2022-12-05T23:57:57;13;;;9.8;;
